createdAt,value
2018-12-16T00:01:33.675Z,6.20
2018-12-16T00:04:02.720Z,5.77
2018-12-16T00:06:31.505Z,6.20
2018-12-16T00:09:00.200Z,6.07
2018-12-16T00:11:29.142Z,6.20
2018-12-16T00:13:57.858Z,6.07
2018-12-16T00:16:26.615Z,5.70
2018-12-16T00:18:55.363Z,5.90
2018-12-16T00:21:24.069Z,6.73
2018-12-16T00:23:52.839Z,7.10
2018-12-16T00:26:21.576Z,6.47
2018-12-16T00:28:50.290Z,7.00
2018-12-16T00:31:19.036Z,7.33
2018-12-16T00:33:47.765Z,8.13
2018-12-16T00:36:16.508Z,6.60
2018-12-16T00:38:45.290Z,8.47
2018-12-16T00:41:13.992Z,7.33
2018-12-16T00:43:42.688Z,8.43
2018-12-16T00:46:11.486Z,7.53
2018-12-16T00:48:40.248Z,7.93
2018-12-16T00:51:08.993Z,8.03
2018-12-16T00:53:37.647Z,7.47
2018-12-16T00:56:06.302Z,8.03
2018-12-16T00:58:35.092Z,8.20
2018-12-16T01:01:03.868Z,8.03
2018-12-16T01:03:32.800Z,7.90
2018-12-16T01:06:01.992Z,8.70
2018-12-16T01:08:31.543Z,7.40
2018-12-16T01:11:00.297Z,7.87
2018-12-16T01:13:29.148Z,6.87
2018-12-16T01:15:57.864Z,7.10
2018-12-16T01:18:26.628Z,6.53
2018-12-16T01:20:55.794Z,7.17
2018-12-16T01:23:24.477Z,6.83
2018-12-16T01:25:53.183Z,6.27
2018-12-16T01:28:21.926Z,6.00
2018-12-16T01:30:50.965Z,6.50
2018-12-16T01:33:19.628Z,7.23
2018-12-16T01:35:48.294Z,6.67
2018-12-16T01:38:17.022Z,6.43
2018-12-16T01:40:45.760Z,7.97
2018-12-16T01:43:14.520Z,6.13
2018-12-16T01:45:43.308Z,6.40
2018-12-16T01:48:12.046Z,4.97
2018-12-16T01:50:40.718Z,5.27
2018-12-16T01:53:09.410Z,5.67
2018-12-16T01:55:38.207Z,5.70
2018-12-16T01:58:06.914Z,5.37
2018-12-16T02:00:35.887Z,5.10
2018-12-16T02:03:05.070Z,5.30
2018-12-16T02:05:34.289Z,5.73
2018-12-16T02:08:03.070Z,5.53
2018-12-16T02:10:31.761Z,5.30
2018-12-16T02:13:00.522Z,5.47
2018-12-16T02:15:29.200Z,5.50
2018-12-16T02:17:57.996Z,5.30
2018-12-16T02:20:26.713Z,5.77
2018-12-16T02:22:57.059Z,5.80
2018-12-16T02:25:26.244Z,5.97
2018-12-16T02:27:55.041Z,6.23
2018-12-16T02:30:28.884Z,5.43
2018-12-16T02:32:58.328Z,4.87
2018-12-16T02:35:27.040Z,4.87
2018-12-16T02:37:55.673Z,5.03
2018-12-16T02:40:24.438Z,4.67
2018-12-16T02:42:53.129Z,4.67
2018-12-16T02:45:21.852Z,5.67
2018-12-16T02:47:50.570Z,5.00
2018-12-16T02:50:19.812Z,4.77
2018-12-16T02:52:48.543Z,5.50
2018-12-16T02:55:17.289Z,5.33
2018-12-16T02:57:45.976Z,5.67
2018-12-16T03:00:15.242Z,5.27
2018-12-16T03:02:43.897Z,6.03
2018-12-16T03:05:12.601Z,6.17
2018-12-16T03:07:42.170Z,5.97
2018-12-16T03:10:11.334Z,6.03
2018-12-16T03:12:40.175Z,6.20
2018-12-16T03:15:09.526Z,10.13
2018-12-16T03:17:38.403Z,10.30
2018-12-16T03:20:08.123Z,9.77
2018-12-16T03:22:36.964Z,7.77
2018-12-16T03:25:07.398Z,10.53
2018-12-16T03:27:39.289Z,8.20
2018-12-16T03:30:11.258Z,8.37
2018-12-16T03:32:40.054Z,12.53
2018-12-16T03:35:09.435Z,11.37
2018-12-16T03:37:38.285Z,10.27
2018-12-16T03:40:08.061Z,11.87
2018-12-16T03:42:36.841Z,13.40
2018-12-16T03:45:06.612Z,13.60
2018-12-16T03:47:35.326Z,12.20
2018-12-16T03:50:04.686Z,13.37
2018-12-16T03:52:33.472Z,12.80
2018-12-16T03:55:02.205Z,13.97
2018-12-16T03:57:31.479Z,14.13
2018-12-16T04:00:00.724Z,12.83
2018-12-16T04:02:29.449Z,14.60
2018-12-16T04:04:58.250Z,15.30
2018-12-16T04:07:27.074Z,11.40
2018-12-16T04:09:55.806Z,10.30
2018-12-16T04:12:24.479Z,11.03
2018-12-16T04:14:53.179Z,10.20
2018-12-16T04:17:21.882Z,7.23
2018-12-16T04:19:50.621Z,8.73
2018-12-16T04:22:19.381Z,8.37
2018-12-16T04:24:48.197Z,9.43
2018-12-16T04:27:17.053Z,5.17
2018-12-16T04:29:45.810Z,5.93
2018-12-16T04:32:14.589Z,7.73
2018-12-16T04:34:43.356Z,12.67
2018-12-16T04:37:12.072Z,24.07
2018-12-16T04:39:40.778Z,19.70
2018-12-16T04:42:09.645Z,19.80
2018-12-16T04:44:38.380Z,20.03
2018-12-16T04:47:07.173Z,20.97
2018-12-16T04:49:35.854Z,19.70
2018-12-16T04:52:04.618Z,18.53
2018-12-16T04:54:33.344Z,18.00
2018-12-16T04:57:02.091Z,15.97
2018-12-16T04:59:30.837Z,15.37
2018-12-16T05:01:59.609Z,15.40
2018-12-16T05:04:28.304Z,13.67
2018-12-16T05:06:57.054Z,11.43
2018-12-16T05:09:25.874Z,12.07
2018-12-16T05:11:54.664Z,10.50
2018-12-16T05:14:23.706Z,8.83
2018-12-16T05:16:52.468Z,9.20
2018-12-16T05:19:21.170Z,10.33
2018-12-16T05:21:49.899Z,8.77
2018-12-16T05:24:18.624Z,8.90
2018-12-16T05:26:47.363Z,8.67
2018-12-16T05:29:16.116Z,8.30
2018-12-16T05:31:44.903Z,8.10
2018-12-16T05:34:13.573Z,8.60
2018-12-16T05:36:42.450Z,7.67
2018-12-16T05:39:11.187Z,9.30
2018-12-16T05:41:39.896Z,7.97
2018-12-16T05:44:08.576Z,7.83
2018-12-16T05:46:37.267Z,8.33
2018-12-16T05:49:06.082Z,8.20
2018-12-16T05:51:34.800Z,7.43
2018-12-16T05:54:03.590Z,6.90
2018-12-16T05:56:32.326Z,7.37
2018-12-16T05:59:01.102Z,6.53
2018-12-16T06:01:29.778Z,8.50
2018-12-16T06:03:58.438Z,9.03
2018-12-16T06:06:27.202Z,7.40
2018-12-16T06:08:55.895Z,7.33
2018-12-16T06:11:24.641Z,7.63
2018-12-16T06:13:53.331Z,8.23
2018-12-16T06:16:21.977Z,7.00
2018-12-16T06:18:50.715Z,7.80
2018-12-16T06:21:19.435Z,6.43
2018-12-16T06:23:48.243Z,9.77
2018-12-16T06:26:16.980Z,6.70
2018-12-16T06:28:45.816Z,6.00
2018-12-16T06:31:14.640Z,5.50
2018-12-16T06:33:43.385Z,5.60
2018-12-16T06:36:12.503Z,6.67
2018-12-16T06:38:41.208Z,9.77
2018-12-16T06:41:09.910Z,9.77
2018-12-16T06:43:38.623Z,10.73
2018-12-16T06:46:07.365Z,10.33
2018-12-16T06:48:36.092Z,9.13
2018-12-16T06:51:04.843Z,7.07
2018-12-16T06:53:34.117Z,7.30
2018-12-16T06:56:06.598Z,6.23
2018-12-16T06:58:33.550Z,5.77
2018-12-16T07:01:02.419Z,5.43
2018-12-16T07:03:31.174Z,5.63
2018-12-16T07:06:00.018Z,3.53
2018-12-16T07:08:28.648Z,5.20
2018-12-16T07:10:57.617Z,6.13
2018-12-16T07:13:26.497Z,5.90
2018-12-16T07:15:55.234Z,4.80
2018-12-16T07:18:23.973Z,4.23
2018-12-16T07:20:52.726Z,4.50
2018-12-16T07:23:21.445Z,4.37
2018-12-16T07:25:50.453Z,5.83
2018-12-16T07:28:19.159Z,5.00
2018-12-16T07:30:48.237Z,5.20
2018-12-16T07:33:17.122Z,4.50
2018-12-16T07:35:46.189Z,5.07
2018-12-16T07:38:15.055Z,4.70
2018-12-16T07:40:43.806Z,4.17
2018-12-16T07:43:12.530Z,4.70
2018-12-16T07:45:41.203Z,3.63
2018-12-16T07:48:09.934Z,3.93
2018-12-16T07:50:38.733Z,2.70
2018-12-16T07:53:07.462Z,2.60
2018-12-16T07:55:36.182Z,2.90
2018-12-16T07:58:05.359Z,2.90
2018-12-16T08:00:34.341Z,2.00
2018-12-16T08:03:04.502Z,3.80
2018-12-16T08:05:33.277Z,3.60
2018-12-16T08:08:02.036Z,3.10
2018-12-16T08:10:30.812Z,4.20
2018-12-16T08:12:59.533Z,3.23
2018-12-16T08:15:28.277Z,4.00
2018-12-16T08:17:56.953Z,3.93
2018-12-16T08:20:25.642Z,5.20
2018-12-16T08:22:54.377Z,3.93
2018-12-16T08:25:23.165Z,3.23
2018-12-16T08:27:51.945Z,3.03
2018-12-16T08:30:20.945Z,3.13
2018-12-16T08:32:49.660Z,3.00
2018-12-16T08:35:18.417Z,3.47
2018-12-16T08:37:47.177Z,3.10
2018-12-16T08:40:16.456Z,3.20
2018-12-16T08:42:45.164Z,4.10
2018-12-16T08:45:13.963Z,4.17
2018-12-16T08:47:42.738Z,3.67
2018-12-16T08:50:11.533Z,4.30
2018-12-16T08:52:40.536Z,4.03
2018-12-16T08:55:09.248Z,5.50
2018-12-16T08:57:37.985Z,5.47
2018-12-16T09:00:14.732Z,6.17
2018-12-16T09:02:43.467Z,8.20
2018-12-16T09:05:13.391Z,7.13
2018-12-16T09:07:42.081Z,8.27
2018-12-16T09:10:11.476Z,5.13
2018-12-16T09:12:40.234Z,4.77
2018-12-16T09:15:09.463Z,6.57
2018-12-16T09:17:38.208Z,4.73
2018-12-16T09:20:07.995Z,5.23
2018-12-16T09:22:36.778Z,6.73
2018-12-16T09:25:07.273Z,8.03
2018-12-16T09:27:36.024Z,7.17
2018-12-16T09:30:14.018Z,7.60
2018-12-16T09:32:42.767Z,10.50
2018-12-16T09:35:11.463Z,9.97
2018-12-16T09:37:40.190Z,11.97
2018-12-16T09:40:09.643Z,8.43
2018-12-16T09:42:38.383Z,11.43
2018-12-16T09:45:08.114Z,10.47
2018-12-16T09:47:37.313Z,9.90
2018-12-16T09:50:06.955Z,12.27
2018-12-16T09:52:35.660Z,11.40
2018-12-16T09:55:05.318Z,10.93
2018-12-16T09:57:34.072Z,9.63
2018-12-16T10:00:12.021Z,11.53
2018-12-16T10:02:40.847Z,10.07
2018-12-16T10:05:12.594Z,12.00
2018-12-16T10:07:41.356Z,11.90
2018-12-16T10:10:11.452Z,11.93
2018-12-16T10:12:40.227Z,11.63
2018-12-16T10:15:10.050Z,10.37
2018-12-16T10:17:38.789Z,10.43
2018-12-16T10:20:10.020Z,11.93
2018-12-16T10:22:38.968Z,8.50
2018-12-16T10:25:08.207Z,6.83
2018-12-16T10:27:36.965Z,7.60
2018-12-16T10:30:13.872Z,9.43
2018-12-16T10:32:42.604Z,9.33
2018-12-16T10:35:11.344Z,9.53
2018-12-16T10:37:40.093Z,8.53
2018-12-16T10:40:08.933Z,9.73
2018-12-16T10:42:37.655Z,10.43
2018-12-16T10:45:08.540Z,9.53
2018-12-16T10:47:37.268Z,9.30
2018-12-16T10:50:07.644Z,8.23
2018-12-16T10:52:36.382Z,9.97
2018-12-16T10:55:06.104Z,13.47
2018-12-16T10:57:34.820Z,10.97
2018-12-16T11:00:16.699Z,9.57
2018-12-16T11:02:45.443Z,13.47
2018-12-16T11:05:15.326Z,10.90
2018-12-16T11:07:44.039Z,21.17
2018-12-16T11:10:12.761Z,9.93
2018-12-16T11:12:42.337Z,13.30
2018-12-16T11:15:11.170Z,11.77
2018-12-16T11:17:39.880Z,10.07
2018-12-16T11:20:09.234Z,10.40
2018-12-16T11:22:37.985Z,11.87
2018-12-16T11:25:09.026Z,11.00
2018-12-16T11:27:37.803Z,11.67
2018-12-16T11:30:15.276Z,13.17
2018-12-16T11:32:44.491Z,22.30
2018-12-16T11:35:13.243Z,12.27
2018-12-16T11:37:42.423Z,10.73
2018-12-16T11:40:11.258Z,10.73
2018-12-16T11:42:39.976Z,12.03
2018-12-16T11:45:09.213Z,11.70
2018-12-16T11:47:38.019Z,11.50
2018-12-16T11:50:07.342Z,10.40
2018-12-16T11:52:36.136Z,11.33
2018-12-16T11:55:12.540Z,9.47
2018-12-16T11:57:36.248Z,12.90
2018-12-16T12:00:13.657Z,13.43
2018-12-16T12:02:42.341Z,11.60
2018-12-16T12:05:11.102Z,10.63
2018-12-16T12:07:39.813Z,10.43
2018-12-16T12:10:09.348Z,9.83
2018-12-16T12:12:38.071Z,10.33
2018-12-16T12:15:07.251Z,11.00
2018-12-16T12:17:35.984Z,12.60
2018-12-16T12:20:05.501Z,10.30
2018-12-16T12:22:34.238Z,9.47
2018-12-16T12:25:03.006Z,10.07
2018-12-16T12:27:31.807Z,8.90
2018-12-16T12:30:00.566Z,11.73
2018-12-16T12:32:29.328Z,8.97
2018-12-16T12:34:58.020Z,8.77
2018-12-16T12:37:26.866Z,8.30
2018-12-16T12:39:55.660Z,10.30
2018-12-16T12:42:24.420Z,9.30
2018-12-16T12:44:53.186Z,8.43
2018-12-16T12:47:22.191Z,8.90
2018-12-16T12:49:50.886Z,10.17
2018-12-16T12:52:19.952Z,8.90
2018-12-16T12:54:50.633Z,9.40
2018-12-16T12:57:19.398Z,8.70
2018-12-16T12:59:48.268Z,10.43
2018-12-16T13:02:17.079Z,10.37
2018-12-16T13:04:45.927Z,9.60
2018-12-16T13:07:14.633Z,8.53
2018-12-16T13:09:43.409Z,8.43
2018-12-16T13:12:12.236Z,9.00
2018-12-16T13:14:41.371Z,10.57
2018-12-16T13:17:10.140Z,11.67
2018-12-16T13:19:38.862Z,9.60
2018-12-16T13:22:07.617Z,12.63
2018-12-16T13:24:40.753Z,10.77
2018-12-16T13:27:09.505Z,10.20
2018-12-16T13:29:38.230Z,9.50
2018-12-16T13:32:07.076Z,11.70
2018-12-16T13:34:35.842Z,9.97
2018-12-16T13:37:11.152Z,12.47
2018-12-16T13:39:39.873Z,11.03
2018-12-16T13:42:08.561Z,11.20
2018-12-16T13:44:37.272Z,11.97
2018-12-16T13:47:06.161Z,10.10
2018-12-16T13:49:34.945Z,11.30
2018-12-16T13:52:03.747Z,11.43
2018-12-16T13:54:32.596Z,9.83
2018-12-16T13:57:01.471Z,10.63
2018-12-16T13:59:30.261Z,11.17
2018-12-16T14:01:58.982Z,20.63
2018-12-16T14:04:27.744Z,13.20
2018-12-16T14:06:56.529Z,12.60
2018-12-16T14:09:25.298Z,15.33
2018-12-16T14:11:54.406Z,9.97
2018-12-16T14:14:23.147Z,9.47
2018-12-16T14:16:51.921Z,11.03
2018-12-16T14:19:20.707Z,9.83
2018-12-16T14:21:49.496Z,10.50
2018-12-16T14:24:18.243Z,12.00
2018-12-16T14:26:47.196Z,11.83
2018-12-16T14:29:16.005Z,12.13
2018-12-16T14:31:44.680Z,11.07
2018-12-16T14:34:13.427Z,11.03
2018-12-16T14:36:42.155Z,10.47
2018-12-16T14:39:10.848Z,11.07
2018-12-16T14:41:40.396Z,11.30
2018-12-16T14:44:09.206Z,11.60
2018-12-16T14:46:37.891Z,11.07
2018-12-16T14:49:06.605Z,11.03
2018-12-16T14:51:35.877Z,12.47
2018-12-16T14:54:05.039Z,10.10
2018-12-16T14:56:33.808Z,9.80
2018-12-16T14:59:03.178Z,11.60
2018-12-16T15:01:31.990Z,9.63
2018-12-16T15:04:01.051Z,12.30
2018-12-16T15:06:29.942Z,10.57
2018-12-16T15:08:58.618Z,11.57
2018-12-16T15:11:27.470Z,10.73
2018-12-16T15:13:56.224Z,11.10
2018-12-16T15:16:25.266Z,11.80
2018-12-16T15:18:54.005Z,12.70
2018-12-16T15:21:22.744Z,11.17
2018-12-16T15:23:51.573Z,11.00
2018-12-16T15:26:20.393Z,11.20
2018-12-16T15:28:49.203Z,12.73
2018-12-16T15:31:19.311Z,10.00
2018-12-16T15:33:48.493Z,11.03
2018-12-16T15:36:17.411Z,15.40
2018-12-16T15:38:46.161Z,15.80
2018-12-16T15:41:15.011Z,11.63
2018-12-16T15:43:43.905Z,11.87
2018-12-16T15:46:12.737Z,14.27
2018-12-16T15:48:42.307Z,14.53
2018-12-16T15:51:11.038Z,17.83
2018-12-16T15:53:40.217Z,17.97
2018-12-16T15:56:09.517Z,15.67
2018-12-16T15:58:40.731Z,17.57
2018-12-16T16:01:09.652Z,17.83
2018-12-16T16:03:38.761Z,21.23
2018-12-16T16:06:07.513Z,18.97
2018-12-16T16:08:37.483Z,18.27
2018-12-16T16:11:06.720Z,21.03
2018-12-16T16:13:35.592Z,20.53
2018-12-16T16:16:06.078Z,17.67
2018-12-16T16:18:35.135Z,18.83
2018-12-16T16:21:04.783Z,17.47
2018-12-16T16:23:33.597Z,21.17
2018-12-16T16:26:02.458Z,21.97
2018-12-16T16:28:31.338Z,21.87
2018-12-16T16:31:00.253Z,20.87
2018-12-16T16:33:29.754Z,20.93
2018-12-16T16:35:59.637Z,19.37
2018-12-16T16:38:28.613Z,19.70
2018-12-16T16:40:58.030Z,24.57
2018-12-16T16:43:26.941Z,22.77
2018-12-16T16:45:55.882Z,22.17
2018-12-16T16:48:24.847Z,21.30
2018-12-16T16:50:53.853Z,20.00
2018-12-16T16:53:24.256Z,21.43
2018-12-16T16:55:53.457Z,19.47
2018-12-16T16:58:22.396Z,17.77
2018-12-16T17:00:53.888Z,20.37
2018-12-16T17:03:23.735Z,17.37
2018-12-16T17:05:52.522Z,19.00
2018-12-16T17:08:22.249Z,17.60
2018-12-16T17:10:51.671Z,18.37
2018-12-16T17:13:20.419Z,14.43
2018-12-16T17:15:49.545Z,15.60
2018-12-16T17:18:19.537Z,19.03
2018-12-16T17:20:48.326Z,21.10
2018-12-16T17:23:17.205Z,19.20
2018-12-16T17:25:48.436Z,20.60
2018-12-16T17:28:18.552Z,16.13
2018-12-16T17:30:47.319Z,22.30
2018-12-16T17:33:16.108Z,18.50
2018-12-16T17:35:44.943Z,18.43
2018-12-16T17:38:13.712Z,19.73
2018-12-16T17:40:42.507Z,19.03
2018-12-16T17:43:11.234Z,20.10
2018-12-16T17:45:40.037Z,21.03
2018-12-16T17:48:08.840Z,24.93
2018-12-16T17:50:37.537Z,18.90
2018-12-16T17:53:06.937Z,20.07
2018-12-16T17:55:37.456Z,16.00
2018-12-16T17:58:06.791Z,18.00
2018-12-16T18:00:35.590Z,15.07
2018-12-16T18:03:04.411Z,16.80
2018-12-16T18:05:34.037Z,13.63
2018-12-16T18:08:04.305Z,15.73
2018-12-16T18:10:33.043Z,15.90
2018-12-16T18:13:02.200Z,16.07
2018-12-16T18:15:31.081Z,14.20
2018-12-16T18:17:59.795Z,13.70
2018-12-16T18:20:28.595Z,16.00
2018-12-16T18:22:57.454Z,15.40
2018-12-16T18:25:26.202Z,15.73
2018-12-16T18:27:55.086Z,15.93
2018-12-16T18:30:23.982Z,13.70
2018-12-16T18:32:53.253Z,11.97
2018-12-16T18:35:22.163Z,12.63
2018-12-16T18:37:51.360Z,12.43
2018-12-16T18:40:20.127Z,13.00
2018-12-16T18:42:48.912Z,13.47
2018-12-16T18:45:18.119Z,14.17
2018-12-16T18:47:47.376Z,14.77
2018-12-16T18:50:16.120Z,14.30
2018-12-16T18:52:44.930Z,12.47
2018-12-16T18:55:14.100Z,13.30
2018-12-16T18:57:42.852Z,12.40
2018-12-16T19:00:15.636Z,13.80
2018-12-16T19:02:44.521Z,13.87
2018-12-16T19:05:13.323Z,13.07
2018-12-16T19:07:43.165Z,11.83
2018-12-16T19:10:13.074Z,15.23
2018-12-16T19:12:41.811Z,14.97
2018-12-16T19:15:12.116Z,12.40
2018-12-16T19:17:40.897Z,11.93
2018-12-16T19:20:10.220Z,11.87
2018-12-16T19:22:38.987Z,12.60
2018-12-16T19:25:08.625Z,13.43
2018-12-16T19:27:37.399Z,13.43
2018-12-16T19:30:13.794Z,12.73
2018-12-16T19:32:42.573Z,13.03
2018-12-16T19:35:11.580Z,13.47
2018-12-16T19:37:40.522Z,13.43
2018-12-16T19:40:09.635Z,13.20
2018-12-16T19:42:38.798Z,13.10
2018-12-16T19:45:08.434Z,12.23
2018-12-16T19:47:37.203Z,12.10
2018-12-16T19:50:07.402Z,12.63
2018-12-16T19:52:36.152Z,13.27
2018-12-16T19:55:05.951Z,14.63
2018-12-16T19:57:34.763Z,12.50
2018-12-16T20:00:12.854Z,13.77
2018-12-16T20:02:41.604Z,13.17
2018-12-16T20:05:20.095Z,14.13
2018-12-16T20:07:49.678Z,15.40
2018-12-16T20:10:18.598Z,15.23
2018-12-16T20:12:47.335Z,14.43
2018-12-16T20:15:16.124Z,16.37
2018-12-16T20:17:44.857Z,16.93
2018-12-16T20:20:13.653Z,20.23
2018-12-16T20:22:42.436Z,22.73
2018-12-16T20:25:11.672Z,22.43
2018-12-16T20:27:40.442Z,26.57
2018-12-16T20:30:12.693Z,25.70
2018-12-16T20:32:41.519Z,20.50
2018-12-16T20:35:10.478Z,20.63
2018-12-16T20:37:39.655Z,21.77
2018-12-16T20:40:09.356Z,15.40
2018-12-16T20:42:38.083Z,15.47
2018-12-16T20:45:07.940Z,14.60
2018-12-16T20:47:36.669Z,16.03
2018-12-16T20:50:07.216Z,12.20
2018-12-16T20:52:35.911Z,13.70
2018-12-16T20:55:05.843Z,12.03
2018-12-16T20:57:34.621Z,11.57
2018-12-16T21:00:11.984Z,13.23
2018-12-16T21:02:40.912Z,14.27
2018-12-16T21:05:10.996Z,10.97
2018-12-16T21:07:39.780Z,13.07
2018-12-16T21:10:09.051Z,15.13
2018-12-16T21:12:43.062Z,14.93
2018-12-16T21:16:15.720Z,12.33
2018-12-16T21:18:44.994Z,12.60
2018-12-16T21:21:13.812Z,10.80
2018-12-16T21:23:42.567Z,11.37
2018-12-16T21:26:11.608Z,13.17
2018-12-16T21:28:40.355Z,12.03
2018-12-16T21:31:09.124Z,11.97
2018-12-16T21:33:37.924Z,12.63
2018-12-16T21:36:06.685Z,15.00
2018-12-16T21:38:35.432Z,14.70
2018-12-16T21:41:04.227Z,12.40
2018-12-16T21:43:34.821Z,16.47
2018-12-16T21:46:03.913Z,16.43
2018-12-16T21:48:32.686Z,16.13
2018-12-16T21:51:01.405Z,14.10
2018-12-16T21:53:30.162Z,13.67
2018-12-16T21:55:58.871Z,13.03
2018-12-16T21:58:27.628Z,14.83
2018-12-16T22:00:56.437Z,13.10
2018-12-16T22:03:25.227Z,13.73
2018-12-16T22:05:54.035Z,11.93
2018-12-16T22:08:22.752Z,11.70
2018-12-16T22:10:51.541Z,11.50
2018-12-16T22:13:20.331Z,12.43
2018-12-16T22:15:49.062Z,11.87
2018-12-16T22:18:17.824Z,9.33
2018-12-16T22:20:46.596Z,12.17
2018-12-16T22:23:15.353Z,11.77
2018-12-16T22:25:44.147Z,13.70
2018-12-16T22:28:12.938Z,12.63
2018-12-16T22:30:41.747Z,12.40
2018-12-16T22:33:10.480Z,12.07
2018-12-16T22:35:39.228Z,12.60
2018-12-16T22:38:07.927Z,12.20
2018-12-16T22:40:36.654Z,11.13
2018-12-16T22:43:05.503Z,11.93
2018-12-16T22:45:34.215Z,11.37
2018-12-16T22:48:02.922Z,10.20
2018-12-16T22:50:31.700Z,11.33
2018-12-16T22:53:00.406Z,12.47
2018-12-16T22:55:29.126Z,10.13
2018-12-16T22:57:57.990Z,9.53
2018-12-16T23:00:27.433Z,9.50
2018-12-16T23:02:56.214Z,10.57
2018-12-16T23:05:24.972Z,8.90
2018-12-16T23:07:53.650Z,9.80
2018-12-16T23:10:22.408Z,10.50
2018-12-16T23:12:51.232Z,8.83
2018-12-16T23:15:19.933Z,9.97
2018-12-16T23:17:48.707Z,9.07
2018-12-16T23:20:19.869Z,9.23
2018-12-16T23:22:48.942Z,8.97
2018-12-16T23:25:17.689Z,8.67
2018-12-16T23:27:46.372Z,9.70
2018-12-16T23:30:15.271Z,10.27
2018-12-16T23:32:44.002Z,8.73
2018-12-16T23:35:12.763Z,10.00
2018-12-16T23:37:41.474Z,8.97
2018-12-16T23:40:10.207Z,9.73
2018-12-16T23:42:39.022Z,10.93
2018-12-16T23:45:09.938Z,11.23
2018-12-16T23:47:38.634Z,11.03
2018-12-16T23:50:08.516Z,12.97
2018-12-16T23:52:37.306Z,10.43
2018-12-16T23:55:06.525Z,10.80
2018-12-16T23:57:35.313Z,8.67
